METAR AND TAF INFORMATION
METAR FOR LRBS
ADDS - METARS form results

(2107 UTC 20 February 2020)
Data provider http://aviationweather.gov/metar/data/
 
METAR text: LRBS 202100Z 29004KT 9999 FEW029 04/03 Q1021 R07/29//95 NOSIG
Conditions at: LRBS (BUCHAREST/BANEAS, RO) observed 2100 UTC 20 February 2020
Temperature: 4.0°C (39°F)
Dewpoint: 3.0°C (37°F) [RH = 93%]
Pressure (altimeter): 30.15 inches Hg (1021.0 mb)
Winds: from the WNW (290 degrees) at 5 MPH (4 knots; 2.1 m/s)
Visibility: 6 or more miles (10+ km)
Ceiling: at least 12,000 feet AGL
Clouds: few clouds at 2900 feet AGL
Weather: no significant weather observed at this time

METAR text: LRBS 202030Z 26003KT 9999 SCT026 05/04 Q1021 R07/29//95 NOSIG
Conditions at: LRBS (BUCHAREST/BANEAS, RO) observed 2030 UTC 20 February 2020
Temperature: 5.0°C (41°F)
Dewpoint: 4.0°C (39°F) [RH = 93%]
Pressure (altimeter): 30.15 inches Hg (1021.0 mb)
Winds: from the W (260 degrees) at 3 MPH (3 knots; 1.5 m/s)
Visibility: 6 or more miles (10+ km)
Ceiling: at least 12,000 feet AGL
Clouds: scattered clouds at 2600 feet AGL
Weather: no significant weather observed at this time

Forecast for: LRBS (BUCHAREST/BANEAS, RO)
Text: TAF LRBS 201700Z 2018/2118 VRB04KT 9999 BKN030
Forecast period: 1800 UTC 20 February 2020 to 1100 UTC 21 February 2020
Forecast type: FROM: standard forecast or significant change
Winds: variable direction winds at 5 MPH (4 knots; 2.1 m/s)
Visibility: 6 or more miles 10+ km)
Ceiling: 3000 feet AGL
Clouds: broken clouds at 3000 feet AGL
Weather: no significant weather forecast for this period
Text: TEMPO 2101/2106 3000 BR
Forecast period: 0100 to 0600 UTC 21 February 2020
Forecast type: TEMPORARY: The following changes expected for less than half the time period
Visibility: 1.86 miles (2.99 km)
Ceiling: unknown
Clouds: missing
Weather: BR  (mist)
Text: BECMG 2111/2113 25010KT
Forecast period: 1100 to 1800 UTC 21 February 2020
Forecast type: BECOMING: Conditions expected to become as follows by 1300 UTC 21 February 2020
Winds: from the WSW (250 degrees) at 12 MPH (10 knots; 5.1 m/s)
Visibility: 6 or more miles 10+ km)
Ceiling: 3000 feet AGL
Clouds: broken clouds at 3000 feet AGL
Weather: no significant weather forecast for this period

 AIRPORT MAP

 RUNWAY INFORMATION
Runway 07 Runway length 10499 ft Runway width 148 ft
Runway elevation 297 ft Runway displaced threshold 787 ft Runway heading 74
Runway 25 Runway length 10499 ft Runway width 148 ft
Runway elevation 292 ft Runway displaced threshold 2609 ft Runway heading 254

 AIRPORT FREQUENCIES
Type APP Name APP Frequency 118.25 MHZ
Type GCA Name PRECISION Frequency 125.2 MHZ
Type GND Name GND Frequency 129.95 MHZ
Type TWR Name TWR Frequency 120.8 MHZ

 AIRPORT NEAR NAVIGATION AIDS
Type NDB Name Baneasa Southeast Frequency 256 KHZ
Type NDB Name Baneasa Southwest Frequency 521 KHZ



Powered by Virtual Airlines Manager [v2.6.2]